sensor_id;sensor_type;location;lat;lon;timestamp;P1;durP1;ratioP1;P2;durP2;ratioP2
60726;SDS011;46577;49.004;12.120;2023-04-24T00:00:00;7.73;;;5.00;;
60726;SDS011;46577;49.004;12.120;2023-04-24T00:02:26;5.17;;;3.90;;
60726;SDS011;46577;49.004;12.120;2023-04-24T00:04:52;5.10;;;3.90;;
60726;SDS011;46577;49.004;12.120;2023-04-24T00:07:17;5.53;;;3.90;;
60726;SDS011;46577;49.004;12.120;2023-04-24T00:09:45;7.90;;;3.60;;
60726;SDS011;46577;49.004;12.120;2023-04-24T00:12:10;9.30;;;4.53;;
60726;SDS011;46577;49.004;12.120;2023-04-24T00:14:36;5.73;;;3.80;;
60726;SDS011;46577;49.004;12.120;2023-04-24T00:17:02;5.57;;;4.63;;
60726;SDS011;46577;49.004;12.120;2023-04-24T00:19:28;5.10;;;4.33;;
60726;SDS011;46577;49.004;12.120;2023-04-24T00:21:54;7.13;;;3.30;;
60726;SDS011;46577;49.004;12.120;2023-04-24T00:24:20;5.53;;;4.07;;
60726;SDS011;46577;49.004;12.120;2023-04-24T00:26:46;6.70;;;4.00;;
60726;SDS011;46577;49.004;12.120;2023-04-24T00:29:12;9.97;;;4.60;;
60726;SDS011;46577;49.004;12.120;2023-04-24T00:31:38;8.47;;;5.27;;
60726;SDS011;46577;49.004;12.120;2023-04-24T00:34:04;10.53;;;5.57;;
60726;SDS011;46577;49.004;12.120;2023-04-24T00:36:30;5.60;;;4.87;;
60726;SDS011;46577;49.004;12.120;2023-04-24T00:38:57;21.03;;;5.30;;
60726;SDS011;46577;49.004;12.120;2023-04-24T00:41:23;4.97;;;4.57;;
60726;SDS011;46577;49.004;12.120;2023-04-24T00:43:50;6.17;;;4.90;;
60726;SDS011;46577;49.004;12.120;2023-04-24T00:46:16;7.17;;;5.23;;
60726;SDS011;46577;49.004;12.120;2023-04-24T00:48:42;8.00;;;5.97;;
60726;SDS011;46577;49.004;12.120;2023-04-24T00:51:08;5.67;;;5.03;;
60726;SDS011;46577;49.004;12.120;2023-04-24T00:53:34;5.77;;;5.00;;
60726;SDS011;46577;49.004;12.120;2023-04-24T00:56:00;6.73;;;5.30;;
60726;SDS011;46577;49.004;12.120;2023-04-24T00:58:26;6.13;;;5.53;;
60726;SDS011;46577;49.004;12.120;2023-04-24T01:00:52;6.60;;;5.60;;
60726;SDS011;46577;49.004;12.120;2023-04-24T01:03:20;7.03;;;5.83;;
60726;SDS011;46577;49.004;12.120;2023-04-24T01:05:49;8.47;;;5.30;;
60726;SDS011;46577;49.004;12.120;2023-04-24T01:08:15;5.30;;;4.80;;
60726;SDS011;46577;49.004;12.120;2023-04-24T01:10:41;6.17;;;5.30;;
60726;SDS011;46577;49.004;12.120;2023-04-24T01:13:09;5.77;;;5.10;;
60726;SDS011;46577;49.004;12.120;2023-04-24T01:15:35;7.97;;;5.73;;
60726;SDS011;46577;49.004;12.120;2023-04-24T01:18:01;5.70;;;5.10;;
60726;SDS011;46577;49.004;12.120;2023-04-24T01:20:26;7.10;;;6.40;;
60726;SDS011;46577;49.004;12.120;2023-04-24T01:22:54;10.37;;;6.30;;
60726;SDS011;46577;49.004;12.120;2023-04-24T01:25:21;7.27;;;6.23;;
60726;SDS011;46577;49.004;12.120;2023-04-24T01:27:47;10.23;;;6.67;;
60726;SDS011;46577;49.004;12.120;2023-04-24T01:30:13;11.47;;;6.67;;
60726;SDS011;46577;49.004;12.120;2023-04-24T01:32:39;8.30;;;7.50;;
60726;SDS011;46577;49.004;12.120;2023-04-24T01:35:06;9.63;;;5.83;;
60726;SDS011;46577;49.004;12.120;2023-04-24T01:37:32;9.07;;;6.67;;
60726;SDS011;46577;49.004;12.120;2023-04-24T01:39:58;9.07;;;6.73;;
60726;SDS011;46577;49.004;12.120;2023-04-24T01:42:24;10.47;;;6.50;;
60726;SDS011;46577;49.004;12.120;2023-04-24T01:44:50;8.50;;;7.13;;
60726;SDS011;46577;49.004;12.120;2023-04-24T01:47:19;11.83;;;6.80;;
60726;SDS011;46577;49.004;12.120;2023-04-24T01:49:45;9.27;;;7.50;;
60726;SDS011;46577;49.004;12.120;2023-04-24T01:52:12;16.40;;;8.30;;
60726;SDS011;46577;49.004;12.120;2023-04-24T01:54:38;11.20;;;8.83;;
60726;SDS011;46577;49.004;12.120;2023-04-24T01:57:03;20.87;;;11.17;;
60726;SDS011;46577;49.004;12.120;2023-04-24T01:59:30;18.33;;;10.80;;
60726;SDS011;46577;49.004;12.120;2023-04-24T02:01:58;14.10;;;11.30;;
60726;SDS011;46577;49.004;12.120;2023-04-24T02:04:23;15.30;;;12.27;;
60726;SDS011;46577;49.004;12.120;2023-04-24T02:06:49;16.37;;;11.53;;
60726;SDS011;46577;49.004;12.120;2023-04-24T02:09:15;19.60;;;12.87;;
60726;SDS011;46577;49.004;12.120;2023-04-24T02:11:40;16.23;;;13.30;;
60726;SDS011;46577;49.004;12.120;2023-04-24T02:14:06;22.73;;;13.30;;
60726;SDS011;46577;49.004;12.120;2023-04-24T02:16:32;16.10;;;12.10;;
60726;SDS011;46577;49.004;12.120;2023-04-24T02:18:58;14.60;;;11.60;;
60726;SDS011;46577;49.004;12.120;2023-04-24T02:21:23;17.10;;;12.63;;
60726;SDS011;46577;49.004;12.120;2023-04-24T02:23:49;15.40;;;11.63;;
60726;SDS011;46577;49.004;12.120;2023-04-24T02:26:14;16.13;;;11.60;;
60726;SDS011;46577;49.004;12.120;2023-04-24T02:28:41;13.30;;;10.63;;
60726;SDS011;46577;49.004;12.120;2023-04-24T02:31:06;14.83;;;11.60;;
60726;SDS011;46577;49.004;12.120;2023-04-24T02:33:32;16.93;;;10.50;;
60726;SDS011;46577;49.004;12.120;2023-04-24T02:35:58;14.23;;;11.03;;
60726;SDS011;46577;49.004;12.120;2023-04-24T02:38:24;14.53;;;9.50;;
60726;SDS011;46577;49.004;12.120;2023-04-24T02:40:50;10.87;;;8.97;;
60726;SDS011;46577;49.004;12.120;2023-04-24T02:43:15;18.00;;;9.17;;
60726;SDS011;46577;49.004;12.120;2023-04-24T02:45:41;9.60;;;8.00;;
60726;SDS011;46577;49.004;12.120;2023-04-24T02:48:06;9.43;;;8.13;;
60726;SDS011;46577;49.004;12.120;2023-04-24T02:50:32;9.10;;;7.67;;
60726;SDS011;46577;49.004;12.120;2023-04-24T02:52:58;8.20;;;7.20;;
60726;SDS011;46577;49.004;12.120;2023-04-24T02:55:24;13.83;;;8.13;;
60726;SDS011;46577;49.004;12.120;2023-04-24T02:57:50;9.40;;;7.73;;
60726;SDS011;46577;49.004;12.120;2023-04-24T03:00:15;10.43;;;7.47;;
60726;SDS011;46577;49.004;12.120;2023-04-24T03:02:41;9.80;;;7.50;;
60726;SDS011;46577;49.004;12.120;2023-04-24T03:05:07;8.40;;;7.60;;
60726;SDS011;46577;49.004;12.120;2023-04-24T03:07:33;11.00;;;7.63;;
60726;SDS011;46577;49.004;12.120;2023-04-24T03:09:59;8.13;;;6.90;;
60726;SDS011;46577;49.004;12.120;2023-04-24T03:12:25;10.63;;;7.87;;
60726;SDS011;46577;49.004;12.120;2023-04-24T03:14:50;11.70;;;7.90;;
60726;SDS011;46577;49.004;12.120;2023-04-24T03:17:16;8.17;;;7.30;;
60726;SDS011;46577;49.004;12.120;2023-04-24T03:19:42;9.73;;;8.10;;
60726;SDS011;46577;49.004;12.120;2023-04-24T03:22:07;10.07;;;8.30;;
60726;SDS011;46577;49.004;12.120;2023-04-24T03:24:34;14.77;;;8.50;;
60726;SDS011;46577;49.004;12.120;2023-04-24T03:26:59;8.77;;;7.87;;
60726;SDS011;46577;49.004;12.120;2023-04-24T03:29:25;8.90;;;7.73;;
60726;SDS011;46577;49.004;12.120;2023-04-24T03:31:51;13.30;;;9.03;;
60726;SDS011;46577;49.004;12.120;2023-04-24T03:34:16;12.43;;;7.83;;
60726;SDS011;46577;49.004;12.120;2023-04-24T03:36:42;11.73;;;7.80;;
60726;SDS011;46577;49.004;12.120;2023-04-24T03:39:07;9.57;;;8.30;;
60726;SDS011;46577;49.004;12.120;2023-04-24T03:41:33;10.47;;;8.27;;
60726;SDS011;46577;49.004;12.120;2023-04-24T03:43:58;12.37;;;8.10;;
60726;SDS011;46577;49.004;12.120;2023-04-24T03:46:25;20.00;;;8.30;;
60726;SDS011;46577;49.004;12.120;2023-04-24T03:48:50;11.67;;;7.47;;
60726;SDS011;46577;49.004;12.120;2023-04-24T03:51:16;10.87;;;7.60;;
60726;SDS011;46577;49.004;12.120;2023-04-24T03:53:41;9.87;;;7.63;;
60726;SDS011;46577;49.004;12.120;2023-04-24T03:56:07;13.90;;;8.80;;
60726;SDS011;46577;49.004;12.120;2023-04-24T03:58:32;9.80;;;8.13;;
60726;SDS011;46577;49.004;12.120;2023-04-24T04:00:58;9.80;;;8.37;;
60726;SDS011;46577;49.004;12.120;2023-04-24T04:03:25;15.23;;;9.00;;
60726;SDS011;46577;49.004;12.120;2023-04-24T04:05:50;9.00;;;7.80;;
60726;SDS011;46577;49.004;12.120;2023-04-24T04:08:16;12.03;;;8.10;;
60726;SDS011;46577;49.004;12.120;2023-04-24T04:10:42;11.93;;;8.47;;
60726;SDS011;46577;49.004;12.120;2023-04-24T04:13:07;10.57;;;7.93;;
60726;SDS011;46577;49.004;12.120;2023-04-24T04:15:33;10.00;;;7.90;;
60726;SDS011;46577;49.004;12.120;2023-04-24T04:17:59;12.13;;;8.37;;
60726;SDS011;46577;49.004;12.120;2023-04-24T04:20:24;10.07;;;8.10;;
60726;SDS011;46577;49.004;12.120;2023-04-24T04:22:50;9.23;;;8.10;;
60726;SDS011;46577;49.004;12.120;2023-04-24T04:25:15;9.03;;;7.70;;
60726;SDS011;46577;49.004;12.120;2023-04-24T04:27:44;12.17;;;9.20;;
60726;SDS011;46577;49.004;12.120;2023-04-24T04:30:10;9.40;;;8.43;;
60726;SDS011;46577;49.004;12.120;2023-04-24T04:32:36;9.83;;;8.63;;
60726;SDS011;46577;49.004;12.120;2023-04-24T04:35:02;12.43;;;8.17;;
60726;SDS011;46577;49.004;12.120;2023-04-24T04:37:31;9.23;;;7.50;;
60726;SDS011;46577;49.004;12.120;2023-04-24T04:40:00;8.87;;;8.00;;
60726;SDS011;46577;49.004;12.120;2023-04-24T04:42:31;9.57;;;7.80;;
60726;SDS011;46577;49.004;12.120;2023-04-24T04:44:58;8.27;;;7.07;;
60726;SDS011;46577;49.004;12.120;2023-04-24T04:47:27;8.70;;;7.80;;
60726;SDS011;46577;49.004;12.120;2023-04-24T04:49:53;8.10;;;7.30;;
60726;SDS011;46577;49.004;12.120;2023-04-24T04:52:19;10.80;;;7.43;;
60726;SDS011;46577;49.004;12.120;2023-04-24T04:54:45;8.30;;;6.33;;
60726;SDS011;46577;49.004;12.120;2023-04-24T04:57:11;7.03;;;6.17;;
60726;SDS011;46577;49.004;12.120;2023-04-24T04:59:37;10.60;;;6.70;;
60726;SDS011;46577;49.004;12.120;2023-04-24T05:02:03;7.27;;;6.07;;
60726;SDS011;46577;49.004;12.120;2023-04-24T05:04:29;9.50;;;6.10;;
60726;SDS011;46577;49.004;12.120;2023-04-24T05:06:55;8.73;;;5.57;;
60726;SDS011;46577;49.004;12.120;2023-04-24T05:09:21;7.00;;;6.30;;
60726;SDS011;46577;49.004;12.120;2023-04-24T05:11:46;8.67;;;5.17;;
60726;SDS011;46577;49.004;12.120;2023-04-24T05:14:12;6.40;;;5.60;;
60726;SDS011;46577;49.004;12.120;2023-04-24T05:16:38;6.03;;;5.43;;
60726;SDS011;46577;49.004;12.120;2023-04-24T05:19:04;5.63;;;4.90;;
60726;SDS011;46577;49.004;12.120;2023-04-24T05:21:30;5.63;;;5.13;;
60726;SDS011;46577;49.004;12.120;2023-04-24T05:23:56;7.43;;;4.30;;
60726;SDS011;46577;49.004;12.120;2023-04-24T05:26:21;5.20;;;4.70;;
60726;SDS011;46577;49.004;12.120;2023-04-24T05:28:48;6.00;;;4.47;;
60726;SDS011;46577;49.004;12.120;2023-04-24T05:31:13;4.67;;;3.97;;
60726;SDS011;46577;49.004;12.120;2023-04-24T05:33:39;5.50;;;3.97;;
60726;SDS011;46577;49.004;12.120;2023-04-24T05:36:05;4.20;;;3.57;;
60726;SDS011;46577;49.004;12.120;2023-04-24T05:38:31;6.60;;;3.53;;
60726;SDS011;46577;49.004;12.120;2023-04-24T05:40:57;9.20;;;3.50;;
60726;SDS011;46577;49.004;12.120;2023-04-24T05:43:22;4.20;;;2.60;;
60726;SDS011;46577;49.004;12.120;2023-04-24T05:45:48;4.40;;;2.80;;
60726;SDS011;46577;49.004;12.120;2023-04-24T05:48:14;3.13;;;2.83;;
60726;SDS011;46577;49.004;12.120;2023-04-24T05:50:39;2.80;;;2.57;;
60726;SDS011;46577;49.004;12.120;2023-04-24T05:53:05;12.30;;;2.87;;
60726;SDS011;46577;49.004;12.120;2023-04-24T05:55:32;3.33;;;2.80;;
60726;SDS011;46577;49.004;12.120;2023-04-24T05:57:58;4.93;;;2.60;;
60726;SDS011;46577;49.004;12.120;2023-04-24T06:00:24;2.73;;;2.20;;
60726;SDS011;46577;49.004;12.120;2023-04-24T06:02:50;5.20;;;2.90;;
60726;SDS011;46577;49.004;12.120;2023-04-24T06:05:17;3.10;;;2.07;;
60726;SDS011;46577;49.004;12.120;2023-04-24T06:07:44;2.83;;;2.50;;
60726;SDS011;46577;49.004;12.120;2023-04-24T06:10:10;4.40;;;3.20;;
60726;SDS011;46577;49.004;12.120;2023-04-24T06:12:36;3.77;;;2.73;;
60726;SDS011;46577;49.004;12.120;2023-04-24T06:15:02;3.37;;;2.53;;
60726;SDS011;46577;49.004;12.120;2023-04-24T06:17:28;6.23;;;3.43;;
60726;SDS011;46577;49.004;12.120;2023-04-24T06:19:54;3.30;;;3.00;;
60726;SDS011;46577;49.004;12.120;2023-04-24T06:22:19;4.67;;;2.93;;
60726;SDS011;46577;49.004;12.120;2023-04-24T06:24:45;2.60;;;2.40;;
60726;SDS011;46577;49.004;12.120;2023-04-24T06:27:13;5.43;;;2.83;;
60726;SDS011;46577;49.004;12.120;2023-04-24T06:29:38;3.10;;;2.63;;
60726;SDS011;46577;49.004;12.120;2023-04-24T06:32:04;3.00;;;2.50;;
60726;SDS011;46577;49.004;12.120;2023-04-24T06:34:30;4.00;;;2.77;;
60726;SDS011;46577;49.004;12.120;2023-04-24T06:36:57;3.07;;;2.87;;
60726;SDS011;46577;49.004;12.120;2023-04-24T06:39:23;3.10;;;2.47;;
60726;SDS011;46577;49.004;12.120;2023-04-24T06:41:48;3.53;;;2.73;;
60726;SDS011;46577;49.004;12.120;2023-04-24T06:44:14;4.27;;;2.47;;
60726;SDS011;46577;49.004;12.120;2023-04-24T06:46:40;4.43;;;2.20;;
60726;SDS011;46577;49.004;12.120;2023-04-24T06:49:06;3.53;;;2.20;;
60726;SDS011;46577;49.004;12.120;2023-04-24T06:51:32;1.90;;;1.80;;
60726;SDS011;46577;49.004;12.120;2023-04-24T06:53:58;8.20;;;2.43;;
60726;SDS011;46577;49.004;12.120;2023-04-24T06:56:24;2.57;;;2.37;;
60726;SDS011;46577;49.004;12.120;2023-04-24T06:58:50;2.57;;;2.20;;
60726;SDS011;46577;49.004;12.120;2023-04-24T07:01:16;6.33;;;2.50;;
60726;SDS011;46577;49.004;12.120;2023-04-24T07:03:42;2.73;;;2.53;;
60726;SDS011;46577;49.004;12.120;2023-04-24T07:06:08;17.30;;;2.73;;
60726;SDS011;46577;49.004;12.120;2023-04-24T07:08:36;2.93;;;2.63;;
60726;SDS011;46577;49.004;12.120;2023-04-24T07:11:01;3.53;;;2.10;;
60726;SDS011;46577;49.004;12.120;2023-04-24T07:13:27;3.00;;;1.83;;
60726;SDS011;46577;49.004;12.120;2023-04-24T07:15:53;5.97;;;2.30;;
60726;SDS011;46577;49.004;12.120;2023-04-24T07:18:20;3.40;;;2.27;;
60726;SDS011;46577;49.004;12.120;2023-04-24T07:20:46;2.30;;;2.10;;
60726;SDS011;46577;49.004;12.120;2023-04-24T07:23:12;3.90;;;2.13;;
60726;SDS011;46577;49.004;12.120;2023-04-24T07:25:37;1.53;;;1.43;;
60726;SDS011;46577;49.004;12.120;2023-04-24T07:28:04;5.90;;;1.90;;
60726;SDS011;46577;49.004;12.120;2023-04-24T07:30:30;8.10;;;1.70;;
60726;SDS011;46577;49.004;12.120;2023-04-24T07:32:57;1.93;;;1.73;;
60726;SDS011;46577;49.004;12.120;2023-04-24T07:35:24;1.97;;;1.80;;
60726;SDS011;46577;49.004;12.120;2023-04-24T07:37:51;3.23;;;1.63;;
60726;SDS011;46577;49.004;12.120;2023-04-24T07:40:18;4.00;;;1.97;;
60726;SDS011;46577;49.004;12.120;2023-04-24T07:42:44;5.70;;;1.57;;
60726;SDS011;46577;49.004;12.120;2023-04-24T07:45:09;6.30;;;2.57;;
60726;SDS011;46577;49.004;12.120;2023-04-24T07:47:35;2.20;;;2.00;;
60726;SDS011;46577;49.004;12.120;2023-04-24T07:50:02;2.23;;;1.50;;
60726;SDS011;46577;49.004;12.120;2023-04-24T07:52:28;1.83;;;1.40;;
60726;SDS011;46577;49.004;12.120;2023-04-24T07:54:54;1.83;;;1.50;;
60726;SDS011;46577;49.004;12.120;2023-04-24T07:57:23;2.63;;;1.40;;
60726;SDS011;46577;49.004;12.120;2023-04-24T07:59:50;3.20;;;1.20;;
60726;SDS011;46577;49.004;12.120;2023-04-24T08:02:15;5.33;;;1.63;;
60726;SDS011;46577;49.004;12.120;2023-04-24T08:04:41;1.73;;;1.20;;
60726;SDS011;46577;49.004;12.120;2023-04-24T08:07:07;2.00;;;1.80;;
60726;SDS011;46577;49.004;12.120;2023-04-24T08:09:33;2.77;;;1.60;;
60726;SDS011;46577;49.004;12.120;2023-04-24T08:11:58;3.63;;;1.30;;
60726;SDS011;46577;49.004;12.120;2023-04-24T08:14:24;1.57;;;1.30;;
60726;SDS011;46577;49.004;12.120;2023-04-24T08:16:50;3.87;;;1.13;;
60726;SDS011;46577;49.004;12.120;2023-04-24T08:19:17;1.53;;;1.10;;
60726;SDS011;46577;49.004;12.120;2023-04-24T08:21:42;2.73;;;1.17;;
60726;SDS011;46577;49.004;12.120;2023-04-24T08:24:08;2.93;;;1.30;;
60726;SDS011;46577;49.004;12.120;2023-04-24T08:26:33;5.43;;;0.80;;
60726;SDS011;46577;49.004;12.120;2023-04-24T08:28:59;1.87;;;0.90;;
60726;SDS011;46577;49.004;12.120;2023-04-24T08:31:25;2.63;;;1.23;;
60726;SDS011;46577;49.004;12.120;2023-04-24T08:33:51;0.80;;;0.80;;
60726;SDS011;46577;49.004;12.120;2023-04-24T08:36:17;2.60;;;1.00;;
60726;SDS011;46577;49.004;12.120;2023-04-24T08:38:43;2.50;;;0.87;;
60726;SDS011;46577;49.004;12.120;2023-04-24T08:41:08;1.13;;;1.03;;
60726;SDS011;46577;49.004;12.120;2023-04-24T08:43:34;2.00;;;1.20;;
60726;SDS011;46577;49.004;12.120;2023-04-24T08:46:03;1.30;;;1.10;;
60726;SDS011;46577;49.004;12.120;2023-04-24T08:48:29;1.50;;;1.00;;
60726;SDS011;46577;49.004;12.120;2023-04-24T08:50:56;3.50;;;1.40;;
60726;SDS011;46577;49.004;12.120;2023-04-24T08:53:23;5.23;;;1.13;;
60726;SDS011;46577;49.004;12.120;2023-04-24T08:55:50;3.03;;;1.00;;
60726;SDS011;46577;49.004;12.120;2023-04-24T08:58:18;4.20;;;0.90;;
60726;SDS011;46577;49.004;12.120;2023-04-24T09:00:44;2.00;;;1.57;;
60726;SDS011;46577;49.004;12.120;2023-04-24T09:03:15;1.20;;;1.10;;
60726;SDS011;46577;49.004;12.120;2023-04-24T09:05:46;2.00;;;1.40;;
60726;SDS011;46577;49.004;12.120;2023-04-24T09:08:17;1.47;;;1.20;;
60726;SDS011;46577;49.004;12.120;2023-04-24T09:10:43;6.83;;;1.53;;
60726;SDS011;46577;49.004;12.120;2023-04-24T09:13:09;1.77;;;1.10;;
60726;SDS011;46577;49.004;12.120;2023-04-24T09:15:36;2.10;;;1.33;;
60726;SDS011;46577;49.004;12.120;2023-04-24T09:18:04;2.13;;;1.20;;
60726;SDS011;46577;49.004;12.120;2023-04-24T09:20:30;1.50;;;1.10;;
60726;SDS011;46577;49.004;12.120;2023-04-24T09:22:57;1.40;;;1.07;;
60726;SDS011;46577;49.004;12.120;2023-04-24T09:25:24;1.20;;;0.97;;
60726;SDS011;46577;49.004;12.120;2023-04-24T09:28:00;1.67;;;1.20;;
60726;SDS011;46577;49.004;12.120;2023-04-24T09:30:27;5.53;;;0.83;;
60726;SDS011;46577;49.004;12.120;2023-04-24T09:35:42;0.90;;;0.90;;
60726;SDS011;46577;49.004;12.120;2023-04-24T09:38:08;2.60;;;1.07;;
60726;SDS011;46577;49.004;12.120;2023-04-24T09:40:35;1.10;;;1.00;;
60726;SDS011;46577;49.004;12.120;2023-04-24T09:43:00;1.90;;;1.33;;
60726;SDS011;46577;49.004;12.120;2023-04-24T09:45:28;2.17;;;0.90;;
60726;SDS011;46577;49.004;12.120;2023-04-24T09:48:00;1.00;;;0.90;;
60726;SDS011;46577;49.004;12.120;2023-04-24T09:50:25;5.73;;;1.40;;
60726;SDS011;46577;49.004;12.120;2023-04-24T09:52:59;1.90;;;1.00;;
60726;SDS011;46577;49.004;12.120;2023-04-24T09:55:29;1.37;;;1.27;;
60726;SDS011;46577;49.004;12.120;2023-04-24T09:57:56;0.90;;;0.90;;
60726;SDS011;46577;49.004;12.120;2023-04-24T10:03:09;1.67;;;0.93;;
60726;SDS011;46577;49.004;12.120;2023-04-24T10:05:35;4.50;;;1.10;;
60726;SDS011;46577;49.004;12.120;2023-04-24T10:08:03;3.30;;;1.00;;
60726;SDS011;46577;49.004;12.120;2023-04-24T10:10:39;0.80;;;0.80;;
60726;SDS011;46577;49.004;12.120;2023-04-24T10:13:10;3.23;;;1.00;;
60726;SDS011;46577;49.004;12.120;2023-04-24T10:15:36;1.57;;;1.20;;
60726;SDS011;46577;49.004;12.120;2023-04-24T10:18:04;1.93;;;0.90;;
60726;SDS011;46577;49.004;12.120;2023-04-24T10:20:31;0.87;;;0.70;;
60726;SDS011;46577;49.004;12.120;2023-04-24T10:22:58;4.43;;;1.07;;
60726;SDS011;46577;49.004;12.120;2023-04-24T10:25:29;1.40;;;1.30;;
60726;SDS011;46577;49.004;12.120;2023-04-24T10:27:57;3.77;;;1.30;;
60726;SDS011;46577;49.004;12.120;2023-04-24T10:30:27;3.30;;;1.20;;
60726;SDS011;46577;49.004;12.120;2023-04-24T10:32:54;1.20;;;1.10;;
60726;SDS011;46577;49.004;12.120;2023-04-24T10:35:21;2.30;;;1.23;;
60726;SDS011;46577;49.004;12.120;2023-04-24T10:37:50;1.77;;;1.30;;
60726;SDS011;46577;49.004;12.120;2023-04-24T10:40:30;2.00;;;1.33;;
60726;SDS011;46577;49.004;12.120;2023-04-24T10:42:57;1.63;;;1.27;;
60726;SDS011;46577;49.004;12.120;2023-04-24T10:45:23;1.23;;;1.10;;
60726;SDS011;46577;49.004;12.120;2023-04-24T10:50:18;2.47;;;0.83;;
60726;SDS011;46577;49.004;12.120;2023-04-24T10:52:48;2.50;;;1.17;;
60726;SDS011;46577;49.004;12.120;2023-04-24T10:55:16;2.53;;;1.33;;
60726;SDS011;46577;49.004;12.120;2023-04-24T10:58:02;3.80;;;1.33;;
60726;SDS011;46577;49.004;12.120;2023-04-24T11:00:29;2.20;;;0.90;;
60726;SDS011;46577;49.004;12.120;2023-04-24T11:02:55;1.63;;;1.30;;
60726;SDS011;46577;49.004;12.120;2023-04-24T11:05:22;1.10;;;0.97;;
60726;SDS011;46577;49.004;12.120;2023-04-24T11:08:14;5.07;;;1.30;;
60726;SDS011;46577;49.004;12.120;2023-04-24T11:10:47;0.90;;;0.90;;
60726;SDS011;46577;49.004;12.120;2023-04-24T11:13:23;2.60;;;1.20;;
60726;SDS011;46577;49.004;12.120;2023-04-24T11:16:11;2.10;;;1.07;;
60726;SDS011;46577;49.004;12.120;2023-04-24T11:19:00;6.17;;;1.50;;
60726;SDS011;46577;49.004;12.120;2023-04-24T11:21:47;2.30;;;1.17;;
60726;SDS011;46577;49.004;12.120;2023-04-24T11:24:26;4.10;;;1.47;;
60726;SDS011;46577;49.004;12.120;2023-04-24T11:26:53;2.50;;;1.50;;
60726;SDS011;46577;49.004;12.120;2023-04-24T11:29:20;1.07;;;1.00;;
60726;SDS011;46577;49.004;12.120;2023-04-24T11:31:46;2.30;;;1.23;;
60726;SDS011;46577;49.004;12.120;2023-04-24T11:34:15;1.53;;;1.17;;
60726;SDS011;46577;49.004;12.120;2023-04-24T11:36:47;1.43;;;0.97;;
60726;SDS011;46577;49.004;12.120;2023-04-24T11:39:13;1.87;;;1.20;;
60726;SDS011;46577;49.004;12.120;2023-04-24T11:41:40;3.73;;;1.30;;
60726;SDS011;46577;49.004;12.120;2023-04-24T11:44:06;1.63;;;1.23;;
60726;SDS011;46577;49.004;12.120;2023-04-24T11:46:33;2.23;;;1.20;;
60726;SDS011;46577;49.004;12.120;2023-04-24T11:48:59;1.07;;;0.97;;
60726;SDS011;46577;49.004;12.120;2023-04-24T11:51:25;1.27;;;1.17;;
60726;SDS011;46577;49.004;12.120;2023-04-24T11:53:55;1.67;;;1.23;;
60726;SDS011;46577;49.004;12.120;2023-04-24T11:56:21;2.77;;;1.20;;
60726;SDS011;46577;49.004;12.120;2023-04-24T11:58:47;3.60;;;1.00;;
60726;SDS011;46577;49.004;12.120;2023-04-24T12:01:13;1.50;;;1.20;;
60726;SDS011;46577;49.004;12.120;2023-04-24T12:03:39;4.10;;;1.20;;
60726;SDS011;46577;49.004;12.120;2023-04-24T12:06:09;1.27;;;1.13;;
60726;SDS011;46577;49.004;12.120;2023-04-24T12:08:36;4.63;;;1.10;;
60726;SDS011;46577;49.004;12.120;2023-04-24T12:11:03;1.40;;;0.90;;
60726;SDS011;46577;49.004;12.120;2023-04-24T12:13:32;3.07;;;1.60;;
60726;SDS011;46577;49.004;12.120;2023-04-24T12:15:58;1.40;;;1.30;;
60726;SDS011;46577;49.004;12.120;2023-04-24T12:18:24;1.73;;;1.50;;
60726;SDS011;46577;49.004;12.120;2023-04-24T12:20:50;2.77;;;1.47;;
60726;SDS011;46577;49.004;12.120;2023-04-24T12:23:15;1.50;;;1.20;;
60726;SDS011;46577;49.004;12.120;2023-04-24T12:25:42;3.20;;;1.63;;
60726;SDS011;46577;49.004;12.120;2023-04-24T12:28:09;3.80;;;1.47;;
60726;SDS011;46577;49.004;12.120;2023-04-24T12:30:43;2.50;;;1.10;;
60726;SDS011;46577;49.004;12.120;2023-04-24T12:33:16;1.43;;;1.00;;
60726;SDS011;46577;49.004;12.120;2023-04-24T12:35:43;1.93;;;1.13;;
60726;SDS011;46577;49.004;12.120;2023-04-24T12:38:11;1.43;;;0.90;;
60726;SDS011;46577;49.004;12.120;2023-04-24T12:40:38;1.30;;;1.17;;
60726;SDS011;46577;49.004;12.120;2023-04-24T12:43:19;1.47;;;0.93;;
60726;SDS011;46577;49.004;12.120;2023-04-24T12:45:48;4.30;;;1.47;;
60726;SDS011;46577;49.004;12.120;2023-04-24T12:48:13;2.30;;;1.13;;
60726;SDS011;46577;49.004;12.120;2023-04-24T12:50:39;1.63;;;0.90;;
60726;SDS011;46577;49.004;12.120;2023-04-24T12:53:05;2.53;;;1.23;;
60726;SDS011;46577;49.004;12.120;2023-04-24T12:55:33;2.43;;;1.30;;
60726;SDS011;46577;49.004;12.120;2023-04-24T12:57:59;3.37;;;1.10;;
60726;SDS011;46577;49.004;12.120;2023-04-24T13:00:24;5.00;;;1.47;;
60726;SDS011;46577;49.004;12.120;2023-04-24T13:02:50;3.73;;;1.17;;
60726;SDS011;46577;49.004;12.120;2023-04-24T13:05:16;5.60;;;2.30;;
60726;SDS011;46577;49.004;12.120;2023-04-24T13:07:42;1.10;;;1.00;;
60726;SDS011;46577;49.004;12.120;2023-04-24T13:10:07;2.63;;;2.13;;
60726;SDS011;46577;49.004;12.120;2023-04-24T13:12:34;1.67;;;1.20;;
60726;SDS011;46577;49.004;12.120;2023-04-24T13:15:00;1.57;;;1.47;;
60726;SDS011;46577;49.004;12.120;2023-04-24T13:17:25;7.50;;;2.27;;
60726;SDS011;46577;49.004;12.120;2023-04-24T13:19:51;7.70;;;2.33;;
60726;SDS011;46577;49.004;12.120;2023-04-24T13:22:20;1.50;;;1.23;;
60726;SDS011;46577;49.004;12.120;2023-04-24T13:24:46;1.57;;;1.47;;
60726;SDS011;46577;49.004;12.120;2023-04-24T13:27:13;1.67;;;1.27;;
60726;SDS011;46577;49.004;12.120;2023-04-24T13:29:39;1.57;;;1.10;;
60726;SDS011;46577;49.004;12.120;2023-04-24T13:32:05;4.07;;;1.13;;
60726;SDS011;46577;49.004;12.120;2023-04-24T13:34:31;1.77;;;1.23;;
60726;SDS011;46577;49.004;12.120;2023-04-24T13:36:57;1.43;;;1.20;;
60726;SDS011;46577;49.004;12.120;2023-04-24T13:39:23;1.60;;;1.40;;
60726;SDS011;46577;49.004;12.120;2023-04-24T13:41:50;4.33;;;1.50;;
60726;SDS011;46577;49.004;12.120;2023-04-24T13:44:16;7.37;;;1.30;;
60726;SDS011;46577;49.004;12.120;2023-04-24T13:46:43;1.47;;;0.80;;
60726;SDS011;46577;49.004;12.120;2023-04-24T13:49:11;4.60;;;1.30;;
60726;SDS011;46577;49.004;12.120;2023-04-24T13:51:40;3.27;;;1.00;;
60726;SDS011;46577;49.004;12.120;2023-04-24T13:54:06;1.97;;;1.00;;
60726;SDS011;46577;49.004;12.120;2023-04-24T13:56:32;3.90;;;0.90;;
60726;SDS011;46577;49.004;12.120;2023-04-24T13:58:58;2.93;;;1.60;;
60726;SDS011;46577;49.004;12.120;2023-04-24T14:01:23;1.00;;;1.00;;
60726;SDS011;46577;49.004;12.120;2023-04-24T14:03:53;1.40;;;1.23;;
60726;SDS011;46577;49.004;12.120;2023-04-24T14:06:19;1.83;;;1.10;;
60726;SDS011;46577;49.004;12.120;2023-04-24T14:08:45;1.33;;;1.07;;
60726;SDS011;46577;49.004;12.120;2023-04-24T14:11:11;1.40;;;1.30;;
60726;SDS011;46577;49.004;12.120;2023-04-24T14:13:37;1.30;;;1.10;;
60726;SDS011;46577;49.004;12.120;2023-04-24T14:16:04;1.30;;;1.20;;
60726;SDS011;46577;49.004;12.120;2023-04-24T14:18:29;1.10;;;1.00;;
60726;SDS011;46577;49.004;12.120;2023-04-24T14:20:55;1.43;;;1.00;;
60726;SDS011;46577;49.004;12.120;2023-04-24T14:23:21;1.00;;;0.90;;
60726;SDS011;46577;49.004;12.120;2023-04-24T14:25:46;2.13;;;1.10;;
60726;SDS011;46577;49.004;12.120;2023-04-24T14:28:15;1.90;;;1.07;;
60726;SDS011;46577;49.004;12.120;2023-04-24T14:30:42;1.10;;;1.00;;
60726;SDS011;46577;49.004;12.120;2023-04-24T14:33:07;3.03;;;1.30;;
60726;SDS011;46577;49.004;12.120;2023-04-24T14:35:33;1.57;;;1.00;;